sensor_id;sensor_type;location;lat;lon;timestamp;temperature;humidity
33717;DHT22;20046;50.746;7.072;2023-06-14T00:00:40;18.10;76.40
33717;DHT22;20046;50.746;7.072;2023-06-14T00:03:07;18.20;76.20
33717;DHT22;20046;50.746;7.072;2023-06-14T00:05:38;18.20;75.80
33717;DHT22;20046;50.746;7.072;2023-06-14T00:08:07;18.20;75.50
33717;DHT22;20046;50.746;7.072;2023-06-14T00:10:34;18.20;75.20
33717;DHT22;20046;50.746;7.072;2023-06-14T00:13:01;18.20;75.50
33717;DHT22;20046;50.746;7.072;2023-06-14T00:15:27;18.20;76.10
33717;DHT22;20046;50.746;7.072;2023-06-14T00:17:53;18.20;75.70
33717;DHT22;20046;50.746;7.072;2023-06-14T00:20:20;18.20;75.50
33717;DHT22;20046;50.746;7.072;2023-06-14T00:22:46;18.10;75.30
33717;DHT22;20046;50.746;7.072;2023-06-14T00:25:12;18.10;75.00
33717;DHT22;20046;50.746;7.072;2023-06-14T00:27:37;18.10;74.70
33717;DHT22;20046;50.746;7.072;2023-06-14T00:30:03;18.20;74.50
33717;DHT22;20046;50.746;7.072;2023-06-14T00:32:29;18.20;74.60
33717;DHT22;20046;50.746;7.072;2023-06-14T00:34:55;18.20;74.50
33717;DHT22;20046;50.746;7.072;2023-06-14T00:37:20;18.20;74.20
33717;DHT22;20046;50.746;7.072;2023-06-14T00:39:46;18.20;74.10
33717;DHT22;20046;50.746;7.072;2023-06-14T00:42:22;18.20;74.50
33717;DHT22;20046;50.746;7.072;2023-06-14T00:44:47;18.20;75.10
33717;DHT22;20046;50.746;7.072;2023-06-14T00:47:13;18.00;76.70
33717;DHT22;20046;50.746;7.072;2023-06-14T00:49:39;17.90;76.40
33717;DHT22;20046;50.746;7.072;2023-06-14T00:52:05;17.80;76.60
33717;DHT22;20046;50.746;7.072;2023-06-14T00:54:31;17.60;77.20
33717;DHT22;20046;50.746;7.072;2023-06-14T00:56:57;17.60;78.00
33717;DHT22;20046;50.746;7.072;2023-06-14T00:59:23;17.50;78.00
33717;DHT22;20046;50.746;7.072;2023-06-14T01:01:49;17.50;78.20
33717;DHT22;20046;50.746;7.072;2023-06-14T01:04:14;17.40;78.70
33717;DHT22;20046;50.746;7.072;2023-06-14T01:06:57;17.30;79.00
33717;DHT22;20046;50.746;7.072;2023-06-14T01:12:04;17.10;79.80
33717;DHT22;20046;50.746;7.072;2023-06-14T01:14:34;17.10;80.00
33717;DHT22;20046;50.746;7.072;2023-06-14T01:17:01;17.00;80.50
33717;DHT22;20046;50.746;7.072;2023-06-14T01:19:27;16.90;81.00
33717;DHT22;20046;50.746;7.072;2023-06-14T01:21:55;16.80;81.60
33717;DHT22;20046;50.746;7.072;2023-06-14T01:24:21;16.70;82.00
33717;DHT22;20046;50.746;7.072;2023-06-14T01:26:53;16.60;82.40
33717;DHT22;20046;50.746;7.072;2023-06-14T01:29:22;16.50;82.70
33717;DHT22;20046;50.746;7.072;2023-06-14T01:31:49;16.50;83.20
33717;DHT22;20046;50.746;7.072;2023-06-14T01:34:15;16.40;83.30
33717;DHT22;20046;50.746;7.072;2023-06-14T01:36:43;16.40;83.90
33717;DHT22;20046;50.746;7.072;2023-06-14T01:39:12;16.30;84.40
33717;DHT22;20046;50.746;7.072;2023-06-14T01:41:39;16.30;84.70
33717;DHT22;20046;50.746;7.072;2023-06-14T01:44:06;16.20;85.10
33717;DHT22;20046;50.746;7.072;2023-06-14T01:46:31;16.10;85.40
33717;DHT22;20046;50.746;7.072;2023-06-14T01:48:57;16.10;85.70
33717;DHT22;20046;50.746;7.072;2023-06-14T01:51:23;16.10;86.00
33717;DHT22;20046;50.746;7.072;2023-06-14T01:53:49;16.00;86.40
33717;DHT22;20046;50.746;7.072;2023-06-14T01:56:15;16.00;86.90
33717;DHT22;20046;50.746;7.072;2023-06-14T01:58:40;16.00;87.10
33717;DHT22;20046;50.746;7.072;2023-06-14T02:01:06;15.90;87.10
33717;DHT22;20046;50.746;7.072;2023-06-14T02:03:32;15.90;87.30
33717;DHT22;20046;50.746;7.072;2023-06-14T02:05:58;15.80;87.90
33717;DHT22;20046;50.746;7.072;2023-06-14T02:08:24;15.70;88.10
33717;DHT22;20046;50.746;7.072;2023-06-14T02:10:49;15.60;88.80
33717;DHT22;20046;50.746;7.072;2023-06-14T02:13:15;15.60;89.30
33717;DHT22;20046;50.746;7.072;2023-06-14T02:15:41;15.50;89.70
33717;DHT22;20046;50.746;7.072;2023-06-14T02:18:09;15.50;90.00
33717;DHT22;20046;50.746;7.072;2023-06-14T02:20:35;15.40;90.20
33717;DHT22;20046;50.746;7.072;2023-06-14T02:23:01;15.40;90.30
33717;DHT22;20046;50.746;7.072;2023-06-14T02:25:27;15.30;90.50
33717;DHT22;20046;50.746;7.072;2023-06-14T02:27:55;15.30;90.50
33717;DHT22;20046;50.746;7.072;2023-06-14T02:30:21;15.30;90.80
33717;DHT22;20046;50.746;7.072;2023-06-14T02:32:47;15.20;91.00
33717;DHT22;20046;50.746;7.072;2023-06-14T02:35:14;15.10;91.30
33717;DHT22;20046;50.746;7.072;2023-06-14T02:37:39;15.10;91.60
33717;DHT22;20046;50.746;7.072;2023-06-14T02:40:06;15.10;91.70
33717;DHT22;20046;50.746;7.072;2023-06-14T02:42:32;15.00;92.00
33717;DHT22;20046;50.746;7.072;2023-06-14T02:44:58;15.00;92.10
33717;DHT22;20046;50.746;7.072;2023-06-14T02:47:23;15.00;92.20
33717;DHT22;20046;50.746;7.072;2023-06-14T02:49:50;14.90;92.40
33717;DHT22;20046;50.746;7.072;2023-06-14T02:52:15;14.80;92.80
33717;DHT22;20046;50.746;7.072;2023-06-14T02:54:41;14.80;93.00
33717;DHT22;20046;50.746;7.072;2023-06-14T02:57:07;14.80;93.20
33717;DHT22;20046;50.746;7.072;2023-06-14T02:59:33;14.80;93.40
33717;DHT22;20046;50.746;7.072;2023-06-14T03:01:59;14.70;93.60
33717;DHT22;20046;50.746;7.072;2023-06-14T03:04:25;14.70;93.90
33717;DHT22;20046;50.746;7.072;2023-06-14T03:06:52;14.70;94.20
33717;DHT22;20046;50.746;7.072;2023-06-14T03:09:19;14.60;94.40
33717;DHT22;20046;50.746;7.072;2023-06-14T03:11:45;14.60;94.50
33717;DHT22;20046;50.746;7.072;2023-06-14T03:14:10;14.60;94.70
33717;DHT22;20046;50.746;7.072;2023-06-14T03:16:36;14.50;94.80
33717;DHT22;20046;50.746;7.072;2023-06-14T03:19:02;14.50;95.00
33717;DHT22;20046;50.746;7.072;2023-06-14T03:21:28;14.50;95.00
33717;DHT22;20046;50.746;7.072;2023-06-14T03:23:54;14.50;95.20
33717;DHT22;20046;50.746;7.072;2023-06-14T03:26:20;14.40;95.30
33717;DHT22;20046;50.746;7.072;2023-06-14T03:28:46;14.40;95.50
33717;DHT22;20046;50.746;7.072;2023-06-14T03:31:12;14.40;95.70
33717;DHT22;20046;50.746;7.072;2023-06-14T03:33:39;14.40;95.80
33717;DHT22;20046;50.746;7.072;2023-06-14T03:36:05;14.40;95.90
33717;DHT22;20046;50.746;7.072;2023-06-14T03:38:31;14.40;96.00
33717;DHT22;20046;50.746;7.072;2023-06-14T03:40:56;14.40;96.10
33717;DHT22;20046;50.746;7.072;2023-06-14T03:43:22;14.40;96.40
33717;DHT22;20046;50.746;7.072;2023-06-14T03:45:47;14.40;96.60
33717;DHT22;20046;50.746;7.072;2023-06-14T03:48:13;14.40;96.70
33717;DHT22;20046;50.746;7.072;2023-06-14T03:50:39;14.40;96.70
33717;DHT22;20046;50.746;7.072;2023-06-14T03:53:06;14.40;96.80
33717;DHT22;20046;50.746;7.072;2023-06-14T03:55:32;14.50;96.90
33717;DHT22;20046;50.746;7.072;2023-06-14T03:57:58;14.50;97.00
33717;DHT22;20046;50.746;7.072;2023-06-14T04:00:24;14.50;97.00
33717;DHT22;20046;50.746;7.072;2023-06-14T04:02:50;14.60;97.10
33717;DHT22;20046;50.746;7.072;2023-06-14T04:05:16;14.60;97.10
33717;DHT22;20046;50.746;7.072;2023-06-14T04:07:42;14.60;97.00
33717;DHT22;20046;50.746;7.072;2023-06-14T04:10:12;14.60;97.00
33717;DHT22;20046;50.746;7.072;2023-06-14T04:12:38;14.70;96.80
33717;DHT22;20046;50.746;7.072;2023-06-14T04:15:04;14.70;96.70
33717;DHT22;20046;50.746;7.072;2023-06-14T04:17:34;14.70;96.70
33717;DHT22;20046;50.746;7.072;2023-06-14T04:20:00;14.70;96.80
33717;DHT22;20046;50.746;7.072;2023-06-14T04:22:26;14.70;96.90
33717;DHT22;20046;50.746;7.072;2023-06-14T04:24:55;14.90;96.90
33717;DHT22;20046;50.746;7.072;2023-06-14T04:27:26;14.90;96.90
33717;DHT22;20046;50.746;7.072;2023-06-14T04:29:52;15.00;96.90
33717;DHT22;20046;50.746;7.072;2023-06-14T04:32:26;15.00;96.70
33717;DHT22;20046;50.746;7.072;2023-06-14T04:34:55;15.10;96.60
33717;DHT22;20046;50.746;7.072;2023-06-14T04:37:22;15.20;96.80
33717;DHT22;20046;50.746;7.072;2023-06-14T04:39:50;15.30;96.80
33717;DHT22;20046;50.746;7.072;2023-06-14T04:42:17;15.40;96.50
33717;DHT22;20046;50.746;7.072;2023-06-14T04:44:46;15.50;95.00
33717;DHT22;20046;50.746;7.072;2023-06-14T04:47:13;15.70;94.20
33717;DHT22;20046;50.746;7.072;2023-06-14T04:49:40;16.00;94.00
33717;DHT22;20046;50.746;7.072;2023-06-14T04:52:06;16.20;95.00
33717;DHT22;20046;50.746;7.072;2023-06-14T04:54:32;16.30;93.20
33717;DHT22;20046;50.746;7.072;2023-06-14T04:56:59;16.60;93.00
33717;DHT22;20046;50.746;7.072;2023-06-14T04:59:25;16.80;91.10
33717;DHT22;20046;50.746;7.072;2023-06-14T05:01:51;17.00;90.60
33717;DHT22;20046;50.746;7.072;2023-06-14T05:04:17;17.20;88.40
33717;DHT22;20046;50.746;7.072;2023-06-14T05:06:44;17.30;87.40
33717;DHT22;20046;50.746;7.072;2023-06-14T05:09:15;17.50;86.10
33717;DHT22;20046;50.746;7.072;2023-06-14T05:11:42;17.70;85.40
33717;DHT22;20046;50.746;7.072;2023-06-14T05:14:10;17.80;85.50
33717;DHT22;20046;50.746;7.072;2023-06-14T05:16:36;17.90;84.40
33717;DHT22;20046;50.746;7.072;2023-06-14T05:19:02;18.10;84.60
33717;DHT22;20046;50.746;7.072;2023-06-14T05:21:29;18.20;83.40
33717;DHT22;20046;50.746;7.072;2023-06-14T05:23:55;18.40;83.00
33717;DHT22;20046;50.746;7.072;2023-06-14T05:26:21;18.50;81.60
33717;DHT22;20046;50.746;7.072;2023-06-14T05:28:48;18.70;82.10
33717;DHT22;20046;50.746;7.072;2023-06-14T05:31:15;18.90;80.60
33717;DHT22;20046;50.746;7.072;2023-06-14T05:33:40;19.00;80.10
33717;DHT22;20046;50.746;7.072;2023-06-14T05:36:06;19.20;79.50
33717;DHT22;20046;50.746;7.072;2023-06-14T05:38:31;19.20;78.90
33717;DHT22;20046;50.746;7.072;2023-06-14T05:40:57;19.50;79.00
33717;DHT22;20046;50.746;7.072;2023-06-14T05:43:23;19.60;78.60
33717;DHT22;20046;50.746;7.072;2023-06-14T05:45:48;19.70;78.30
33717;DHT22;20046;50.746;7.072;2023-06-14T05:48:14;19.90;77.30
33717;DHT22;20046;50.746;7.072;2023-06-14T05:50:39;20.10;77.10
33717;DHT22;20046;50.746;7.072;2023-06-14T05:53:05;20.10;75.30
33717;DHT22;20046;50.746;7.072;2023-06-14T05:55:31;20.20;75.40
33717;DHT22;20046;50.746;7.072;2023-06-14T05:57:56;20.20;75.10
33717;DHT22;20046;50.746;7.072;2023-06-14T06:00:22;20.20;74.90
33717;DHT22;20046;50.746;7.072;2023-06-14T06:02:48;20.40;75.20
33717;DHT22;20046;50.746;7.072;2023-06-14T06:05:13;20.50;74.90
33717;DHT22;20046;50.746;7.072;2023-06-14T06:07:41;20.70;74.80
33717;DHT22;20046;50.746;7.072;2023-06-14T06:10:07;20.90;74.30
33717;DHT22;20046;50.746;7.072;2023-06-14T06:12:33;21.00;73.40
33717;DHT22;20046;50.746;7.072;2023-06-14T06:14:59;21.10;74.10
33717;DHT22;20046;50.746;7.072;2023-06-14T06:17:26;21.20;73.10
33717;DHT22;20046;50.746;7.072;2023-06-14T06:19:52;21.40;73.80
33717;DHT22;20046;50.746;7.072;2023-06-14T06:22:17;21.60;72.60
33717;DHT22;20046;50.746;7.072;2023-06-14T06:24:43;21.60;70.60
33717;DHT22;20046;50.746;7.072;2023-06-14T06:27:08;21.70;70.70
33717;DHT22;20046;50.746;7.072;2023-06-14T06:29:34;21.80;70.50
33717;DHT22;20046;50.746;7.072;2023-06-14T06:32:01;22.00;69.40
33717;DHT22;20046;50.746;7.072;2023-06-14T06:34:27;22.00;69.70
33717;DHT22;20046;50.746;7.072;2023-06-14T06:36:52;22.20;69.50
33717;DHT22;20046;50.746;7.072;2023-06-14T06:39:18;22.40;69.50
33717;DHT22;20046;50.746;7.072;2023-06-14T06:41:43;22.60;69.10
33717;DHT22;20046;50.746;7.072;2023-06-14T06:44:09;22.70;68.20
33717;DHT22;20046;50.746;7.072;2023-06-14T06:46:38;22.80;68.60
33717;DHT22;20046;50.746;7.072;2023-06-14T06:49:08;22.90;68.10
33717;DHT22;20046;50.746;7.072;2023-06-14T06:51:35;23.10;67.70
33717;DHT22;20046;50.746;7.072;2023-06-14T06:54:02;23.20;66.70
33717;DHT22;20046;50.746;7.072;2023-06-14T06:56:27;23.30;66.50
33717;DHT22;20046;50.746;7.072;2023-06-14T06:58:53;23.10;65.80
33717;DHT22;20046;50.746;7.072;2023-06-14T07:01:19;23.00;66.90
33717;DHT22;20046;50.746;7.072;2023-06-14T07:03:45;23.30;66.70
33717;DHT22;20046;50.746;7.072;2023-06-14T07:06:11;23.60;66.40
33717;DHT22;20046;50.746;7.072;2023-06-14T07:08:37;23.70;65.90
33717;DHT22;20046;50.746;7.072;2023-06-14T07:11:04;23.90;65.00
33717;DHT22;20046;50.746;7.072;2023-06-14T07:13:30;23.80;65.30
33717;DHT22;20046;50.746;7.072;2023-06-14T07:15:58;23.80;64.40
33717;DHT22;20046;50.746;7.072;2023-06-14T07:18:25;24.00;65.50
33717;DHT22;20046;50.746;7.072;2023-06-14T07:20:51;24.30;65.00
33717;DHT22;20046;50.746;7.072;2023-06-14T07:23:17;24.60;63.80
33717;DHT22;20046;50.746;7.072;2023-06-14T07:25:43;24.70;63.10
33717;DHT22;20046;50.746;7.072;2023-06-14T07:28:08;24.40;62.20
33717;DHT22;20046;50.746;7.072;2023-06-14T07:30:34;24.40;62.60
33717;DHT22;20046;50.746;7.072;2023-06-14T07:33:00;24.50;61.80
33717;DHT22;20046;50.746;7.072;2023-06-14T07:35:25;24.50;62.70
33717;DHT22;20046;50.746;7.072;2023-06-14T07:37:51;24.70;62.20
33717;DHT22;20046;50.746;7.072;2023-06-14T07:40:18;24.80;61.30
33717;DHT22;20046;50.746;7.072;2023-06-14T07:42:43;24.90;61.50
33717;DHT22;20046;50.746;7.072;2023-06-14T07:45:09;25.20;61.10
33717;DHT22;20046;50.746;7.072;2023-06-14T07:47:35;25.40;60.60
33717;DHT22;20046;50.746;7.072;2023-06-14T07:50:00;25.50;59.40
33717;DHT22;20046;50.746;7.072;2023-06-14T07:52:26;25.90;60.30
33717;DHT22;20046;50.746;7.072;2023-06-14T07:54:52;26.00;59.20
33717;DHT22;20046;50.746;7.072;2023-06-14T07:57:17;26.00;57.60
33717;DHT22;20046;50.746;7.072;2023-06-14T07:59:45;26.30;58.80
33717;DHT22;20046;50.746;7.072;2023-06-14T08:02:11;26.80;57.40
33717;DHT22;20046;50.746;7.072;2023-06-14T08:04:37;26.90;57.80
33717;DHT22;20046;50.746;7.072;2023-06-14T08:07:03;27.30;57.10
33717;DHT22;20046;50.746;7.072;2023-06-14T08:09:29;27.00;56.00
33717;DHT22;20046;50.746;7.072;2023-06-14T08:11:55;27.10;56.60
33717;DHT22;20046;50.746;7.072;2023-06-14T08:14:21;27.20;56.00
33717;DHT22;20046;50.746;7.072;2023-06-14T08:16:46;26.90;56.00
33717;DHT22;20046;50.746;7.072;2023-06-14T08:19:12;27.00;56.30
33717;DHT22;20046;50.746;7.072;2023-06-14T08:21:38;27.20;56.60
33717;DHT22;20046;50.746;7.072;2023-06-14T08:24:03;27.60;55.20
33717;DHT22;20046;50.746;7.072;2023-06-14T08:26:30;27.70;55.50
33717;DHT22;20046;50.746;7.072;2023-06-14T08:28:57;28.00;54.00
33717;DHT22;20046;50.746;7.072;2023-06-14T08:31:23;28.30;54.90
33717;DHT22;20046;50.746;7.072;2023-06-14T08:33:49;28.40;53.90
33717;DHT22;20046;50.746;7.072;2023-06-14T08:36:15;29.10;53.90
33717;DHT22;20046;50.746;7.072;2023-06-14T08:38:40;29.60;53.60
33717;DHT22;20046;50.746;7.072;2023-06-14T08:41:06;30.00;51.90
33717;DHT22;20046;50.746;7.072;2023-06-14T08:43:33;30.10;52.00
33717;DHT22;20046;50.746;7.072;2023-06-14T08:46:02;30.40;52.20
33717;DHT22;20046;50.746;7.072;2023-06-14T08:48:29;29.90;51.70
33717;DHT22;20046;50.746;7.072;2023-06-14T08:51:00;30.00;52.00
33717;DHT22;20046;50.746;7.072;2023-06-14T08:53:32;30.10;51.70
33717;DHT22;20046;50.746;7.072;2023-06-14T08:55:59;30.50;51.40
33717;DHT22;20046;50.746;7.072;2023-06-14T08:58:30;31.00;50.20
33717;DHT22;20046;50.746;7.072;2023-06-14T09:00:57;31.00;48.60
33717;DHT22;20046;50.746;7.072;2023-06-14T09:03:24;31.30;49.30
33717;DHT22;20046;50.746;7.072;2023-06-14T09:05:58;31.50;47.70
33717;DHT22;20046;50.746;7.072;2023-06-14T09:08:27;31.70;48.00
33717;DHT22;20046;50.746;7.072;2023-06-14T09:10:56;32.20;46.70
33717;DHT22;20046;50.746;7.072;2023-06-14T09:13:22;32.20;46.00
33717;DHT22;20046;50.746;7.072;2023-06-14T09:15:48;32.10;46.20
33717;DHT22;20046;50.746;7.072;2023-06-14T09:18:13;31.70;45.70
33717;DHT22;20046;50.746;7.072;2023-06-14T09:20:40;31.20;44.80
33717;DHT22;20046;50.746;7.072;2023-06-14T09:23:06;30.40;45.10
33717;DHT22;20046;50.746;7.072;2023-06-14T09:25:36;30.70;45.90
33717;DHT22;20046;50.746;7.072;2023-06-14T09:28:07;30.30;46.40
33717;DHT22;20046;50.746;7.072;2023-06-14T09:30:33;30.80;46.40
33717;DHT22;20046;50.746;7.072;2023-06-14T09:32:59;31.00;46.40
33717;DHT22;20046;50.746;7.072;2023-06-14T09:35:24;31.60;45.80
33717;DHT22;20046;50.746;7.072;2023-06-14T09:37:50;31.70;46.50
33717;DHT22;20046;50.746;7.072;2023-06-14T09:40:20;32.10;46.00
33717;DHT22;20046;50.746;7.072;2023-06-14T09:42:47;32.50;44.60
33717;DHT22;20046;50.746;7.072;2023-06-14T09:45:13;32.40;44.20
33717;DHT22;20046;50.746;7.072;2023-06-14T09:47:39;32.20;43.80
33717;DHT22;20046;50.746;7.072;2023-06-14T09:50:06;32.20;44.40
33717;DHT22;20046;50.746;7.072;2023-06-14T09:52:31;32.50;44.90
33717;DHT22;20046;50.746;7.072;2023-06-14T09:54:59;32.90;43.40
33717;DHT22;20046;50.746;7.072;2023-06-14T09:57:25;32.90;42.80
33717;DHT22;20046;50.746;7.072;2023-06-14T10:00:00;33.10;43.30
33717;DHT22;20046;50.746;7.072;2023-06-14T10:02:31;32.50;43.50
33717;DHT22;20046;50.746;7.072;2023-06-14T10:05:03;32.60;44.40
33717;DHT22;20046;50.746;7.072;2023-06-14T10:07:35;33.00;45.80
33717;DHT22;20046;50.746;7.072;2023-06-14T10:10:01;33.30;44.20
33717;DHT22;20046;50.746;7.072;2023-06-14T10:12:27;33.10;43.60
33717;DHT22;20046;50.746;7.072;2023-06-14T10:14:53;32.90;43.90
33717;DHT22;20046;50.746;7.072;2023-06-14T10:20:30;32.60;45.80
33717;DHT22;20046;50.746;7.072;2023-06-14T10:23:17;33.00;44.70
33717;DHT22;20046;50.746;7.072;2023-06-14T10:25:44;33.10;44.50
33717;DHT22;20046;50.746;7.072;2023-06-14T10:28:20;33.60;45.10
33717;DHT22;20046;50.746;7.072;2023-06-14T10:31:10;33.90;44.80
33717;DHT22;20046;50.746;7.072;2023-06-14T10:33:56;33.40;44.10
33717;DHT22;20046;50.746;7.072;2023-06-14T10:38:57;33.20;44.60
33717;DHT22;20046;50.746;7.072;2023-06-14T10:41:23;32.60;44.20
33717;DHT22;20046;50.746;7.072;2023-06-14T10:43:51;32.50;44.90
33717;DHT22;20046;50.746;7.072;2023-06-14T10:46:18;32.30;45.30
33717;DHT22;20046;50.746;7.072;2023-06-14T10:48:47;32.60;44.90
33717;DHT22;20046;50.746;7.072;2023-06-14T10:51:19;33.10;44.80
33717;DHT22;20046;50.746;7.072;2023-06-14T10:53:49;32.80;44.50
33717;DHT22;20046;50.746;7.072;2023-06-14T10:56:26;33.30;45.30
33717;DHT22;20046;50.746;7.072;2023-06-14T10:58:53;33.80;44.00
33717;DHT22;20046;50.746;7.072;2023-06-14T11:01:41;34.30;43.30
33717;DHT22;20046;50.746;7.072;2023-06-14T11:04:11;34.40;42.60
33717;DHT22;20046;50.746;7.072;2023-06-14T11:06:47;34.90;43.10
33717;DHT22;20046;50.746;7.072;2023-06-14T11:11:56;34.40;42.70
33717;DHT22;20046;50.746;7.072;2023-06-14T11:14:22;34.00;43.30
33717;DHT22;20046;50.746;7.072;2023-06-14T11:16:49;33.90;43.30
33717;DHT22;20046;50.746;7.072;2023-06-14T11:19:15;34.10;43.30
33717;DHT22;20046;50.746;7.072;2023-06-14T11:21:42;34.30;42.90
33717;DHT22;20046;50.746;7.072;2023-06-14T11:24:11;35.10;41.90
33717;DHT22;20046;50.746;7.072;2023-06-14T11:26:38;35.70;42.70
33717;DHT22;20046;50.746;7.072;2023-06-14T11:29:03;35.60;42.50
33717;DHT22;20046;50.746;7.072;2023-06-14T11:31:29;35.50;41.50
33717;DHT22;20046;50.746;7.072;2023-06-14T11:33:56;34.00;43.00
33717;DHT22;20046;50.746;7.072;2023-06-14T11:36:33;32.80;44.30
33717;DHT22;20046;50.746;7.072;2023-06-14T11:39:03;31.50;45.60
33717;DHT22;20046;50.746;7.072;2023-06-14T11:41:44;31.30;46.10
33717;DHT22;20046;50.746;7.072;2023-06-14T11:44:10;30.90;46.30
33717;DHT22;20046;50.746;7.072;2023-06-14T11:46:37;30.60;47.00
33717;DHT22;20046;50.746;7.072;2023-06-14T11:49:03;31.10;47.40
33717;DHT22;20046;50.746;7.072;2023-06-14T11:51:31;31.50;46.60
33717;DHT22;20046;50.746;7.072;2023-06-14T11:53:57;30.40;47.60
33717;DHT22;20046;50.746;7.072;2023-06-14T11:56:24;29.20;49.40
33717;DHT22;20046;50.746;7.072;2023-06-14T11:58:51;28.20;50.70
33717;DHT22;20046;50.746;7.072;2023-06-14T12:01:17;28.80;50.30
33717;DHT22;20046;50.746;7.072;2023-06-14T12:03:50;30.40;47.60
33717;DHT22;20046;50.746;7.072;2023-06-14T12:06:17;31.60;46.00
33717;DHT22;20046;50.746;7.072;2023-06-14T12:08:50;32.70;45.20
33717;DHT22;20046;50.746;7.072;2023-06-14T12:11:16;33.30;44.30
33717;DHT22;20046;50.746;7.072;2023-06-14T12:13:42;33.70;42.60
33717;DHT22;20046;50.746;7.072;2023-06-14T12:16:12;33.40;42.00
33717;DHT22;20046;50.746;7.072;2023-06-14T12:18:39;34.30;43.40
33717;DHT22;20046;50.746;7.072;2023-06-14T12:21:06;34.20;41.40
33717;DHT22;20046;50.746;7.072;2023-06-14T12:23:58;33.90;42.30
33717;DHT22;20046;50.746;7.072;2023-06-14T12:26:24;35.50;42.00
33717;DHT22;20046;50.746;7.072;2023-06-14T12:28:52;36.20;41.40
33717;DHT22;20046;50.746;7.072;2023-06-14T12:31:17;37.20;39.60
33717;DHT22;20046;50.746;7.072;2023-06-14T12:33:44;37.70;39.50
33717;DHT22;20046;50.746;7.072;2023-06-14T12:36:11;37.20;39.90
33717;DHT22;20046;50.746;7.072;2023-06-14T12:38:37;37.70;41.40
33717;DHT22;20046;50.746;7.072;2023-06-14T12:41:03;36.90;40.40
33717;DHT22;20046;50.746;7.072;2023-06-14T12:43:29;34.30;42.40
33717;DHT22;20046;50.746;7.072;2023-06-14T12:45:55;34.80;43.00
33717;DHT22;20046;50.746;7.072;2023-06-14T12:48:20;35.30;41.90
33717;DHT22;20046;50.746;7.072;2023-06-14T12:50:47;35.70;41.80
33717;DHT22;20046;50.746;7.072;2023-06-14T12:53:12;36.40;41.80
33717;DHT22;20046;50.746;7.072;2023-06-14T12:55:38;36.30;40.90
33717;DHT22;20046;50.746;7.072;2023-06-14T12:58:04;36.40;41.00
33717;DHT22;20046;50.746;7.072;2023-06-14T13:00:29;36.50;40.80
33717;DHT22;20046;50.746;7.072;2023-06-14T13:02:56;36.10;41.70
33717;DHT22;20046;50.746;7.072;2023-06-14T13:05:22;35.40;42.90
33717;DHT22;20046;50.746;7.072;2023-06-14T13:07:48;33.90;43.90
33717;DHT22;20046;50.746;7.072;2023-06-14T13:10:13;32.60;45.60
33717;DHT22;20046;50.746;7.072;2023-06-14T13:12:39;31.00;46.70
33717;DHT22;20046;50.746;7.072;2023-06-14T13:15:05;30.30;47.60
33717;DHT22;20046;50.746;7.072;2023-06-14T13:17:32;29.50;48.30
33717;DHT22;20046;50.746;7.072;2023-06-14T13:19:58;28.90;49.50
33717;DHT22;20046;50.746;7.072;2023-06-14T13:22:25;28.90;49.80
33717;DHT22;20046;50.746;7.072;2023-06-14T13:24:50;28.60;49.40
33717;DHT22;20046;50.746;7.072;2023-06-14T13:27:16;28.30;49.70
33717;DHT22;20046;50.746;7.072;2023-06-14T13:29:41;27.80;50.60
33717;DHT22;20046;50.746;7.072;2023-06-14T13:32:07;27.50;50.80
33717;DHT22;20046;50.746;7.072;2023-06-14T13:34:33;27.40;51.50
33717;DHT22;20046;50.746;7.072;2023-06-14T13:36:58;27.50;52.00
33717;DHT22;20046;50.746;7.072;2023-06-14T13:39:25;27.60;51.60
33717;DHT22;20046;50.746;7.072;2023-06-14T13:41:51;27.00;51.40
33717;DHT22;20046;50.746;7.072;2023-06-14T13:44:16;27.20;51.80
33717;DHT22;20046;50.746;7.072;2023-06-14T13:46:44;27.00;51.40
33717;DHT22;20046;50.746;7.072;2023-06-14T13:49:10;27.00;51.10
33717;DHT22;20046;50.746;7.072;2023-06-14T13:51:36;27.10;51.70
33717;DHT22;20046;50.746;7.072;2023-06-14T13:54:01;27.10;52.40
33717;DHT22;20046;50.746;7.072;2023-06-14T13:56:27;27.40;51.90
33717;DHT22;20046;50.746;7.072;2023-06-14T13:58:53;27.20;51.80
33717;DHT22;20046;50.746;7.072;2023-06-14T14:01:18;27.00;51.50
33717;DHT22;20046;50.746;7.072;2023-06-14T14:03:48;27.10;53.10
33717;DHT22;20046;50.746;7.072;2023-06-14T14:06:15;27.10;52.50
33717;DHT22;20046;50.746;7.072;2023-06-14T14:08:41;26.90;52.30
33717;DHT22;20046;50.746;7.072;2023-06-14T14:11:07;26.70;51.60
33717;DHT22;20046;50.746;7.072;2023-06-14T14:13:34;26.50;51.90
33717;DHT22;20046;50.746;7.072;2023-06-14T14:16:02;26.90;52.20
33717;DHT22;20046;50.746;7.072;2023-06-14T14:18:28;27.10;51.50
33717;DHT22;20046;50.746;7.072;2023-06-14T14:20:54;26.90;52.10
33717;DHT22;20046;50.746;7.072;2023-06-14T14:23:21;26.80;52.80
33717;DHT22;20046;50.746;7.072;2023-06-14T14:25:47;26.90;52.70
33717;DHT22;20046;50.746;7.072;2023-06-14T14:28:13;26.70;52.40
33717;DHT22;20046;50.746;7.072;2023-06-14T14:30:41;26.50;52.30
33717;DHT22;20046;50.746;7.072;2023-06-14T14:33:07;26.60;52.60
33717;DHT22;20046;50.746;7.072;2023-06-14T14:35:32;26.70;52.70
33717;DHT22;20046;50.746;7.072;2023-06-14T14:37:58;26.20;52.90
33717;DHT22;20046;50.746;7.072;2023-06-14T14:40:24;26.00;53.50
33717;DHT22;20046;50.746;7.072;2023-06-14T14:42:50;25.80;53.20
33717;DHT22;20046;50.746;7.072;2023-06-14T14:45:15;26.00;53.70
33717;DHT22;20046;50.746;7.072;2023-06-14T14:47:41;26.00;53.00
33717;DHT22;20046;50.746;7.072;2023-06-14T14:50:07;26.00;53.50
33717;DHT22;20046;50.746;7.072;2023-06-14T14:52:36;26.30;53.00
33717;DHT22;20046;50.746;7.072;2023-06-14T14:55:01;26.50;52.40
33717;DHT22;20046;50.746;7.072;2023-06-14T14:57:27;26.30;52.10
33717;DHT22;20046;50.746;7.072;2023-06-14T14:59:53;26.30;52.90
33717;DHT22;20046;50.746;7.072;2023-06-14T15:02:19;26.30;52.20
33717;DHT22;20046;50.746;7.072;2023-06-14T15:04:45;26.50;53.60
33717;DHT22;20046;50.746;7.072;2023-06-14T15:07:11;26.50;52.00
33717;DHT22;20046;50.746;7.072;2023-06-14T15:09:37;26.80;52.30
33717;DHT22;20046;50.746;7.072;2023-06-14T15:12:03;26.90;52.70
33717;DHT22;20046;50.746;7.072;2023-06-14T15:14:29;26.80;52.40
33717;DHT22;20046;50.746;7.072;2023-06-14T15:16:54;26.60;52.40
33717;DHT22;20046;50.746;7.072;2023-06-14T15:19:20;26.30;52.70
33717;DHT22;20046;50.746;7.072;2023-06-14T15:21:46;26.10;53.60
33717;DHT22;20046;50.746;7.072;2023-06-14T15:24:11;26.00;53.70
33717;DHT22;20046;50.746;7.072;2023-06-14T15:26:37;25.50;53.30
33717;DHT22;20046;50.746;7.072;2023-06-14T15:29:02;25.20;54.60
33717;DHT22;20046;50.746;7.072;2023-06-14T15:31:28;25.40;54.50
33717;DHT22;20046;50.746;7.072;2023-06-14T15:33:54;25.60;54.80
33717;DHT22;20046;50.746;7.072;2023-06-14T15:36:20;25.80;54.20
33717;DHT22;20046;50.746;7.072;2023-06-14T15:38:45;25.60;54.20